sensor_id;sensor_type;location;lat;lon;timestamp;P1;durP1;ratioP1;P2;durP2;ratioP2
39982;SDS011;25670;44.782;10.356;2022-07-29T00:01:50;8.73;;;5.20;;
39982;SDS011;25670;44.782;10.356;2022-07-29T00:04:18;5.03;;;4.63;;
39982;SDS011;25670;44.782;10.356;2022-07-29T00:06:45;4.88;;;4.35;;
39982;SDS011;25670;44.782;10.356;2022-07-29T00:09:11;3.70;;;3.40;;
39982;SDS011;25670;44.782;10.356;2022-07-29T00:11:38;3.30;;;3.10;;
39982;SDS011;25670;44.782;10.356;2022-07-29T00:14:05;3.80;;;3.60;;
39982;SDS011;25670;44.782;10.356;2022-07-29T00:16:34;9.13;;;4.45;;
39982;SDS011;25670;44.782;10.356;2022-07-29T00:19:01;3.40;;;3.20;;
39982;SDS011;25670;44.782;10.356;2022-07-29T00:21:30;3.35;;;3.05;;
39982;SDS011;25670;44.782;10.356;2022-07-29T00:24:00;3.35;;;3.15;;
39982;SDS011;25670;44.782;10.356;2022-07-29T00:26:26;3.35;;;2.70;;
39982;SDS011;25670;44.782;10.356;2022-07-29T00:28:58;8.55;;;4.10;;
39982;SDS011;25670;44.782;10.356;2022-07-29T00:31:29;6.95;;;3.17;;
39982;SDS011;25670;44.782;10.356;2022-07-29T00:33:56;7.05;;;2.83;;
39982;SDS011;25670;44.782;10.356;2022-07-29T00:36:23;2.40;;;2.22;;
39982;SDS011;25670;44.782;10.356;2022-07-29T00:38:50;3.40;;;2.63;;
39982;SDS011;25670;44.782;10.356;2022-07-29T00:41:17;7.15;;;4.07;;
39982;SDS011;25670;44.782;10.356;2022-07-29T00:43:44;3.22;;;3.03;;
39982;SDS011;25670;44.782;10.356;2022-07-29T00:46:11;2.70;;;2.58;;
39982;SDS011;25670;44.782;10.356;2022-07-29T00:48:37;5.45;;;3.13;;
39982;SDS011;25670;44.782;10.356;2022-07-29T00:51:04;5.68;;;3.38;;
39982;SDS011;25670;44.782;10.356;2022-07-29T00:53:33;4.50;;;3.58;;
39982;SDS011;25670;44.782;10.356;2022-07-29T00:56:01;7.60;;;4.75;;
39982;SDS011;25670;44.782;10.356;2022-07-29T00:58:27;12.43;;;4.35;;
39982;SDS011;25670;44.782;10.356;2022-07-29T01:00:54;4.15;;;3.80;;
39982;SDS011;25670;44.782;10.356;2022-07-29T01:03:20;5.43;;;5.13;;
39982;SDS011;25670;44.782;10.356;2022-07-29T01:05:49;9.07;;;5.88;;
39982;SDS011;25670;44.782;10.356;2022-07-29T01:08:16;6.75;;;6.13;;
39982;SDS011;25670;44.782;10.356;2022-07-29T01:10:44;6.63;;;6.13;;
39982;SDS011;25670;44.782;10.356;2022-07-29T01:13:12;7.32;;;6.55;;
39982;SDS011;25670;44.782;10.356;2022-07-29T01:15:49;8.38;;;6.45;;
39982;SDS011;25670;44.782;10.356;2022-07-29T01:18:34;7.15;;;6.75;;
39982;SDS011;25670;44.782;10.356;2022-07-29T01:21:23;9.55;;;8.23;;
39982;SDS011;25670;44.782;10.356;2022-07-29T01:27:26;13.55;;;8.43;;
39982;SDS011;25670;44.782;10.356;2022-07-29T01:30:06;14.00;;;9.45;;
39982;SDS011;25670;44.782;10.356;2022-07-29T01:32:34;11.75;;;8.57;;
39982;SDS011;25670;44.782;10.356;2022-07-29T01:35:22;8.98;;;8.25;;
39982;SDS011;25670;44.782;10.356;2022-07-29T01:37:53;8.27;;;7.75;;
39982;SDS011;25670;44.782;10.356;2022-07-29T01:40:33;8.88;;;7.47;;
39982;SDS011;25670;44.782;10.356;2022-07-29T01:43:06;9.98;;;8.45;;
39982;SDS011;25670;44.782;10.356;2022-07-29T01:45:37;8.55;;;7.88;;
39982;SDS011;25670;44.782;10.356;2022-07-29T01:51:01;7.95;;;7.25;;
39982;SDS011;25670;44.782;10.356;2022-07-29T01:53:36;6.15;;;5.75;;
39982;SDS011;25670;44.782;10.356;2022-07-29T01:56:10;7.25;;;6.55;;
39982;SDS011;25670;44.782;10.356;2022-07-29T01:58:40;10.63;;;5.78;;
39982;SDS011;25670;44.782;10.356;2022-07-29T02:01:09;6.82;;;6.32;;
39982;SDS011;25670;44.782;10.356;2022-07-29T02:03:37;8.73;;;5.75;;
39982;SDS011;25670;44.782;10.356;2022-07-29T02:06:04;5.70;;;5.30;;
39982;SDS011;25670;44.782;10.356;2022-07-29T02:08:34;5.13;;;4.82;;
39982;SDS011;25670;44.782;10.356;2022-07-29T02:11:04;6.32;;;5.30;;
39982;SDS011;25670;44.782;10.356;2022-07-29T02:13:32;4.85;;;4.43;;
39982;SDS011;25670;44.782;10.356;2022-07-29T02:16:04;5.93;;;5.43;;
39982;SDS011;25670;44.782;10.356;2022-07-29T02:18:32;4.80;;;4.50;;
39982;SDS011;25670;44.782;10.356;2022-07-29T02:21:04;5.97;;;4.60;;
39982;SDS011;25670;44.782;10.356;2022-07-29T02:23:33;5.47;;;5.00;;
39982;SDS011;25670;44.782;10.356;2022-07-29T02:26:03;5.53;;;5.03;;
39982;SDS011;25670;44.782;10.356;2022-07-29T02:28:30;4.85;;;4.25;;
39982;SDS011;25670;44.782;10.356;2022-07-29T02:31:01;10.32;;;4.47;;
39982;SDS011;25670;44.782;10.356;2022-07-29T02:33:28;5.32;;;4.28;;
39982;SDS011;25670;44.782;10.356;2022-07-29T02:35:57;4.63;;;3.83;;
39982;SDS011;25670;44.782;10.356;2022-07-29T02:38:24;4.10;;;3.75;;
39982;SDS011;25670;44.782;10.356;2022-07-29T02:41:13;3.88;;;3.67;;
39982;SDS011;25670;44.782;10.356;2022-07-29T02:43:42;3.90;;;3.10;;
39982;SDS011;25670;44.782;10.356;2022-07-29T02:46:12;3.95;;;3.35;;
39982;SDS011;25670;44.782;10.356;2022-07-29T02:48:43;15.85;;;3.10;;
39982;SDS011;25670;44.782;10.356;2022-07-29T02:51:17;3.28;;;3.08;;
39982;SDS011;25670;44.782;10.356;2022-07-29T02:53:51;3.03;;;2.80;;
39982;SDS011;25670;44.782;10.356;2022-07-29T02:56:23;5.78;;;3.28;;
39982;SDS011;25670;44.782;10.356;2022-07-29T02:58:56;3.60;;;3.15;;
39982;SDS011;25670;44.782;10.356;2022-07-29T03:01:28;4.32;;;3.00;;
39982;SDS011;25670;44.782;10.356;2022-07-29T03:06:26;11.57;;;3.60;;
39982;SDS011;25670;44.782;10.356;2022-07-29T03:08:53;3.55;;;3.25;;
39982;SDS011;25670;44.782;10.356;2022-07-29T03:11:20;5.00;;;4.30;;
39982;SDS011;25670;44.782;10.356;2022-07-29T03:13:48;5.55;;;5.15;;
39982;SDS011;25670;44.782;10.356;2022-07-29T03:16:15;5.18;;;4.50;;
39982;SDS011;25670;44.782;10.356;2022-07-29T03:18:43;4.88;;;4.57;;
39982;SDS011;25670;44.782;10.356;2022-07-29T03:21:10;5.80;;;4.70;;
39982;SDS011;25670;44.782;10.356;2022-07-29T03:23:36;5.15;;;4.75;;
39982;SDS011;25670;44.782;10.356;2022-07-29T03:26:03;4.97;;;4.15;;
39982;SDS011;25670;44.782;10.356;2022-07-29T03:28:32;5.20;;;4.80;;
39982;SDS011;25670;44.782;10.356;2022-07-29T03:30:58;6.28;;;4.65;;
39982;SDS011;25670;44.782;10.356;2022-07-29T03:33:25;6.22;;;5.93;;
39982;SDS011;25670;44.782;10.356;2022-07-29T03:35:51;6.85;;;6.25;;
39982;SDS011;25670;44.782;10.356;2022-07-29T03:38:18;8.75;;;7.25;;
39982;SDS011;25670;44.782;10.356;2022-07-29T03:40:50;8.65;;;7.97;;
39982;SDS011;25670;44.782;10.356;2022-07-29T03:43:19;8.23;;;7.53;;
39982;SDS011;25670;44.782;10.356;2022-07-29T03:45:49;8.77;;;8.27;;
39982;SDS011;25670;44.782;10.356;2022-07-29T03:48:21;8.38;;;7.88;;
39982;SDS011;25670;44.782;10.356;2022-07-29T03:50:49;9.38;;;8.45;;
39982;SDS011;25670;44.782;10.356;2022-07-29T03:53:16;9.40;;;8.90;;
39982;SDS011;25670;44.782;10.356;2022-07-29T03:55:44;10.88;;;9.85;;
39982;SDS011;25670;44.782;10.356;2022-07-29T03:58:21;10.45;;;9.20;;
39982;SDS011;25670;44.782;10.356;2022-07-29T04:00:48;11.25;;;9.77;;
39982;SDS011;25670;44.782;10.356;2022-07-29T04:03:15;12.80;;;9.93;;
39982;SDS011;25670;44.782;10.356;2022-07-29T04:05:44;18.77;;;16.65;;
39982;SDS011;25670;44.782;10.356;2022-07-29T04:08:11;17.10;;;15.35;;
39982;SDS011;25670;44.782;10.356;2022-07-29T04:10:37;17.23;;;14.00;;
39982;SDS011;25670;44.782;10.356;2022-07-29T04:13:06;15.98;;;14.15;;
39982;SDS011;25670;44.782;10.356;2022-07-29T04:15:32;15.32;;;13.77;;
39982;SDS011;25670;44.782;10.356;2022-07-29T04:17:59;13.75;;;12.63;;
39982;SDS011;25670;44.782;10.356;2022-07-29T04:20:26;16.35;;;12.13;;
39982;SDS011;25670;44.782;10.356;2022-07-29T04:22:52;10.95;;;10.15;;
39982;SDS011;25670;44.782;10.356;2022-07-29T04:25:19;10.60;;;9.30;;
39982;SDS011;25670;44.782;10.356;2022-07-29T04:27:46;10.98;;;10.07;;
39982;SDS011;25670;44.782;10.356;2022-07-29T04:30:27;9.27;;;8.32;;
39982;SDS011;25670;44.782;10.356;2022-07-29T04:32:55;9.60;;;8.77;;
39982;SDS011;25670;44.782;10.356;2022-07-29T04:35:21;9.32;;;8.65;;
39982;SDS011;25670;44.782;10.356;2022-07-29T04:37:48;10.38;;;7.85;;
39982;SDS011;25670;44.782;10.356;2022-07-29T04:40:14;10.10;;;9.38;;
39982;SDS011;25670;44.782;10.356;2022-07-29T04:42:40;9.07;;;8.48;;
39982;SDS011;25670;44.782;10.356;2022-07-29T04:45:09;12.00;;;8.55;;
39982;SDS011;25670;44.782;10.356;2022-07-29T04:47:35;9.57;;;8.88;;
39982;SDS011;25670;44.782;10.356;2022-07-29T04:50:02;10.95;;;10.27;;
39982;SDS011;25670;44.782;10.356;2022-07-29T04:52:33;12.20;;;11.13;;
39982;SDS011;25670;44.782;10.356;2022-07-29T04:55:01;16.67;;;11.82;;
39982;SDS011;25670;44.782;10.356;2022-07-29T04:57:28;13.00;;;11.60;;
39982;SDS011;25670;44.782;10.356;2022-07-29T04:59:54;13.32;;;11.02;;
39982;SDS011;25670;44.782;10.356;2022-07-29T05:02:20;12.90;;;11.93;;
39982;SDS011;25670;44.782;10.356;2022-07-29T05:04:47;15.43;;;12.32;;
39982;SDS011;25670;44.782;10.356;2022-07-29T05:07:14;19.60;;;13.15;;
39982;SDS011;25670;44.782;10.356;2022-07-29T05:09:40;13.65;;;12.45;;
39982;SDS011;25670;44.782;10.356;2022-07-29T05:12:07;22.95;;;13.13;;
39982;SDS011;25670;44.782;10.356;2022-07-29T05:14:33;13.35;;;12.15;;
39982;SDS011;25670;44.782;10.356;2022-07-29T05:17:00;15.38;;;12.93;;
39982;SDS011;25670;44.782;10.356;2022-07-29T05:19:26;15.02;;;13.55;;
39982;SDS011;25670;44.782;10.356;2022-07-29T05:21:53;14.20;;;13.02;;
39982;SDS011;25670;44.782;10.356;2022-07-29T05:24:19;14.65;;;11.88;;
39982;SDS011;25670;44.782;10.356;2022-07-29T05:26:45;12.93;;;11.65;;
39982;SDS011;25670;44.782;10.356;2022-07-29T05:29:11;18.08;;;12.95;;
39982;SDS011;25670;44.782;10.356;2022-07-29T05:31:38;14.85;;;13.30;;
39982;SDS011;25670;44.782;10.356;2022-07-29T05:34:05;14.00;;;12.82;;
39982;SDS011;25670;44.782;10.356;2022-07-29T05:36:31;13.88;;;12.63;;
39982;SDS011;25670;44.782;10.356;2022-07-29T05:38:57;13.13;;;11.88;;
39982;SDS011;25670;44.782;10.356;2022-07-29T05:41:24;13.30;;;11.65;;
39982;SDS011;25670;44.782;10.356;2022-07-29T05:43:53;15.15;;;12.15;;
39982;SDS011;25670;44.782;10.356;2022-07-29T05:46:21;12.10;;;10.32;;
39982;SDS011;25670;44.782;10.356;2022-07-29T05:48:48;9.50;;;8.55;;
39982;SDS011;25670;44.782;10.356;2022-07-29T05:51:14;9.68;;;8.98;;
39982;SDS011;25670;44.782;10.356;2022-07-29T05:53:41;9.98;;;8.27;;
39982;SDS011;25670;44.782;10.356;2022-07-29T05:56:07;8.77;;;8.07;;
39982;SDS011;25670;44.782;10.356;2022-07-29T05:58:33;8.38;;;7.55;;
39982;SDS011;25670;44.782;10.356;2022-07-29T06:01:07;7.47;;;6.97;;
39982;SDS011;25670;44.782;10.356;2022-07-29T06:03:33;6.32;;;5.93;;
39982;SDS011;25670;44.782;10.356;2022-07-29T06:06:00;7.07;;;6.68;;
39982;SDS011;25670;44.782;10.356;2022-07-29T06:08:26;7.30;;;6.70;;
39982;SDS011;25670;44.782;10.356;2022-07-29T06:10:53;7.43;;;6.28;;
39982;SDS011;25670;44.782;10.356;2022-07-29T06:13:19;8.40;;;7.32;;
39982;SDS011;25670;44.782;10.356;2022-07-29T06:15:45;8.18;;;7.18;;
39982;SDS011;25670;44.782;10.356;2022-07-29T06:18:12;8.02;;;7.38;;
39982;SDS011;25670;44.782;10.356;2022-07-29T06:20:38;8.25;;;7.45;;
39982;SDS011;25670;44.782;10.356;2022-07-29T06:23:05;9.68;;;8.80;;
39982;SDS011;25670;44.782;10.356;2022-07-29T06:25:31;7.70;;;7.00;;
39982;SDS011;25670;44.782;10.356;2022-07-29T06:28:00;7.97;;;6.72;;
39982;SDS011;25670;44.782;10.356;2022-07-29T06:30:26;10.18;;;9.45;;
39982;SDS011;25670;44.782;10.356;2022-07-29T06:32:54;10.50;;;9.10;;
39982;SDS011;25670;44.782;10.356;2022-07-29T06:35:28;15.48;;;10.02;;
39982;SDS011;25670;44.782;10.356;2022-07-29T06:37:54;13.60;;;12.15;;
39982;SDS011;25670;44.782;10.356;2022-07-29T06:40:21;13.30;;;12.30;;
39982;SDS011;25670;44.782;10.356;2022-07-29T06:43:05;14.07;;;12.65;;
39982;SDS011;25670;44.782;10.356;2022-07-29T06:45:35;22.67;;;14.45;;
39982;SDS011;25670;44.782;10.356;2022-07-29T06:48:01;15.65;;;12.32;;
39982;SDS011;25670;44.782;10.356;2022-07-29T06:50:28;22.90;;;13.68;;
39982;SDS011;25670;44.782;10.356;2022-07-29T06:52:54;15.45;;;14.02;;
39982;SDS011;25670;44.782;10.356;2022-07-29T06:55:20;15.35;;;14.15;;
39982;SDS011;25670;44.782;10.356;2022-07-29T06:57:46;16.83;;;15.32;;
39982;SDS011;25670;44.782;10.356;2022-07-29T07:00:13;20.17;;;15.68;;
39982;SDS011;25670;44.782;10.356;2022-07-29T07:02:39;17.38;;;15.77;;
39982;SDS011;25670;44.782;10.356;2022-07-29T07:05:06;18.33;;;16.40;;
39982;SDS011;25670;44.782;10.356;2022-07-29T07:07:35;18.90;;;15.35;;
39982;SDS011;25670;44.782;10.356;2022-07-29T07:10:01;15.32;;;13.60;;
39982;SDS011;25670;44.782;10.356;2022-07-29T07:12:31;15.90;;;14.20;;
39982;SDS011;25670;44.782;10.356;2022-07-29T07:14:57;16.00;;;14.32;;
39982;SDS011;25670;44.782;10.356;2022-07-29T07:17:26;17.05;;;15.23;;
39982;SDS011;25670;44.782;10.356;2022-07-29T07:19:52;15.45;;;13.93;;
39982;SDS011;25670;44.782;10.356;2022-07-29T07:22:18;15.23;;;14.23;;
39982;SDS011;25670;44.782;10.356;2022-07-29T07:24:44;14.20;;;13.10;;
39982;SDS011;25670;44.782;10.356;2022-07-29T07:27:16;13.50;;;11.35;;
39982;SDS011;25670;44.782;10.356;2022-07-29T07:29:42;11.82;;;11.00;;
39982;SDS011;25670;44.782;10.356;2022-07-29T07:32:09;13.10;;;12.10;;
39982;SDS011;25670;44.782;10.356;2022-07-29T07:34:38;17.60;;;13.02;;
39982;SDS011;25670;44.782;10.356;2022-07-29T07:37:05;14.90;;;13.63;;
39982;SDS011;25670;44.782;10.356;2022-07-29T07:39:31;14.00;;;12.73;;
39982;SDS011;25670;44.782;10.356;2022-07-29T07:41:57;13.88;;;12.77;;
39982;SDS011;25670;44.782;10.356;2022-07-29T07:44:23;13.20;;;12.07;;
39982;SDS011;25670;44.782;10.356;2022-07-29T07:46:50;13.45;;;12.18;;
39982;SDS011;25670;44.782;10.356;2022-07-29T07:49:16;11.45;;;10.48;;
39982;SDS011;25670;44.782;10.356;2022-07-29T07:51:42;14.48;;;13.00;;
39982;SDS011;25670;44.782;10.356;2022-07-29T07:54:09;11.43;;;10.48;;
39982;SDS011;25670;44.782;10.356;2022-07-29T07:56:35;11.80;;;10.93;;
39982;SDS011;25670;44.782;10.356;2022-07-29T07:59:01;11.93;;;10.95;;
39982;SDS011;25670;44.782;10.356;2022-07-29T08:01:28;13.70;;;12.45;;
39982;SDS011;25670;44.782;10.356;2022-07-29T08:03:54;12.75;;;11.93;;
39982;SDS011;25670;44.782;10.356;2022-07-29T08:06:21;12.60;;;11.50;;
39982;SDS011;25670;44.782;10.356;2022-07-29T08:08:50;13.20;;;12.23;;
39982;SDS011;25670;44.782;10.356;2022-07-29T08:11:16;12.55;;;11.57;;
39982;SDS011;25670;44.782;10.356;2022-07-29T08:13:43;12.38;;;10.70;;
39982;SDS011;25670;44.782;10.356;2022-07-29T08:16:16;10.73;;;9.82;;
39982;SDS011;25670;44.782;10.356;2022-07-29T08:18:44;10.10;;;9.30;;
39982;SDS011;25670;44.782;10.356;2022-07-29T08:21:11;10.45;;;9.55;;
39982;SDS011;25670;44.782;10.356;2022-07-29T08:23:43;11.00;;;8.82;;
39982;SDS011;25670;44.782;10.356;2022-07-29T08:26:25;8.65;;;8.05;;
39982;SDS011;25670;44.782;10.356;2022-07-29T08:28:52;9.00;;;7.80;;
39982;SDS011;25670;44.782;10.356;2022-07-29T08:31:21;8.35;;;7.75;;
39982;SDS011;25670;44.782;10.356;2022-07-29T08:33:47;8.30;;;7.60;;
39982;SDS011;25670;44.782;10.356;2022-07-29T08:36:13;10.30;;;9.05;;
39982;SDS011;25670;44.782;10.356;2022-07-29T08:38:40;10.32;;;9.23;;
39982;SDS011;25670;44.782;10.356;2022-07-29T08:41:06;9.15;;;7.65;;
39982;SDS011;25670;44.782;10.356;2022-07-29T08:43:32;7.07;;;6.68;;
39982;SDS011;25670;44.782;10.356;2022-07-29T08:46:02;17.17;;;10.23;;
39982;SDS011;25670;44.782;10.356;2022-07-29T08:48:29;11.07;;;10.15;;
39982;SDS011;25670;44.782;10.356;2022-07-29T08:50:56;9.88;;;9.05;;
39982;SDS011;25670;44.782;10.356;2022-07-29T08:53:24;8.98;;;8.48;;
39982;SDS011;25670;44.782;10.356;2022-07-29T08:55:52;12.45;;;11.32;;
39982;SDS011;25670;44.782;10.356;2022-07-29T08:58:19;12.05;;;10.48;;
39982;SDS011;25670;44.782;10.356;2022-07-29T09:00:51;11.35;;;10.10;;
39982;SDS011;25670;44.782;10.356;2022-07-29T09:03:24;12.27;;;10.73;;
39982;SDS011;25670;44.782;10.356;2022-07-29T09:05:55;10.40;;;9.70;;
39982;SDS011;25670;44.782;10.356;2022-07-29T09:08:21;12.05;;;11.20;;
39982;SDS011;25670;44.782;10.356;2022-07-29T09:10:48;8.63;;;8.13;;
39982;SDS011;25670;44.782;10.356;2022-07-29T09:13:16;12.13;;;11.02;;
39982;SDS011;25670;44.782;10.356;2022-07-29T09:15:43;10.88;;;9.90;;
39982;SDS011;25670;44.782;10.356;2022-07-29T09:18:10;10.50;;;9.50;;
39982;SDS011;25670;44.782;10.356;2022-07-29T09:20:36;10.32;;;9.30;;
39982;SDS011;25670;44.782;10.356;2022-07-29T09:23:22;10.65;;;9.63;;
39982;SDS011;25670;44.782;10.356;2022-07-29T09:25:51;11.68;;;9.40;;
39982;SDS011;25670;44.782;10.356;2022-07-29T09:28:17;8.38;;;7.75;;
39982;SDS011;25670;44.782;10.356;2022-07-29T09:30:49;8.85;;;8.25;;
39982;SDS011;25670;44.782;10.356;2022-07-29T09:33:20;6.75;;;6.13;;
39982;SDS011;25670;44.782;10.356;2022-07-29T09:38:30;6.88;;;6.47;;
39982;SDS011;25670;44.782;10.356;2022-07-29T09:40:58;9.23;;;8.27;;
39982;SDS011;25670;44.782;10.356;2022-07-29T09:43:25;6.70;;;6.10;;
39982;SDS011;25670;44.782;10.356;2022-07-29T09:45:51;8.70;;;7.75;;
39982;SDS011;25670;44.782;10.356;2022-07-29T09:48:19;9.40;;;8.80;;
39982;SDS011;25670;44.782;10.356;2022-07-29T09:50:47;8.77;;;8.07;;
39982;SDS011;25670;44.782;10.356;2022-07-29T09:53:30;9.50;;;8.70;;
39982;SDS011;25670;44.782;10.356;2022-07-29T09:56:02;8.52;;;7.93;;
39982;SDS011;25670;44.782;10.356;2022-07-29T09:58:30;10.30;;;7.30;;
39982;SDS011;25670;44.782;10.356;2022-07-29T10:00:59;8.35;;;7.50;;
39982;SDS011;25670;44.782;10.356;2022-07-29T10:03:25;9.55;;;8.00;;
39982;SDS011;25670;44.782;10.356;2022-07-29T10:06:08;6.13;;;5.53;;
39982;SDS011;25670;44.782;10.356;2022-07-29T10:08:36;5.82;;;5.45;;
39982;SDS011;25670;44.782;10.356;2022-07-29T10:11:13;5.95;;;5.45;;
39982;SDS011;25670;44.782;10.356;2022-07-29T10:13:42;5.93;;;5.60;;
39982;SDS011;25670;44.782;10.356;2022-07-29T10:16:10;5.05;;;4.65;;
39982;SDS011;25670;44.782;10.356;2022-07-29T10:18:38;4.80;;;4.50;;
39982;SDS011;25670;44.782;10.356;2022-07-29T10:21:05;5.35;;;4.95;;
39982;SDS011;25670;44.782;10.356;2022-07-29T10:23:32;5.22;;;4.88;;
39982;SDS011;25670;44.782;10.356;2022-07-29T10:25:59;4.90;;;4.15;;
39982;SDS011;25670;44.782;10.356;2022-07-29T10:28:26;14.43;;;3.60;;
39982;SDS011;25670;44.782;10.356;2022-07-29T10:30:52;4.45;;;3.97;;
39982;SDS011;25670;44.782;10.356;2022-07-29T10:41:43;3.83;;;3.50;;
39982;SDS011;25670;44.782;10.356;2022-07-29T10:44:39;4.18;;;3.80;;
39982;SDS011;25670;44.782;10.356;2022-07-29T10:47:25;4.28;;;3.97;;
39982;SDS011;25670;44.782;10.356;2022-07-29T10:49:56;3.80;;;3.50;;
39982;SDS011;25670;44.782;10.356;2022-07-29T11:00:46;5.82;;;4.32;;
39982;SDS011;25670;44.782;10.356;2022-07-29T11:06:12;5.07;;;3.67;;
39982;SDS011;25670;44.782;10.356;2022-07-29T11:08:39;6.30;;;3.95;;
39982;SDS011;25670;44.782;10.356;2022-07-29T11:13:49;4.15;;;3.75;;
39982;SDS011;25670;44.782;10.356;2022-07-29T11:16:17;3.05;;;2.85;;
39982;SDS011;25670;44.782;10.356;2022-07-29T11:21:44;4.13;;;3.25;;
39982;SDS011;25670;44.782;10.356;2022-07-29T11:24:17;5.18;;;2.67;;
39982;SDS011;25670;44.782;10.356;2022-07-29T11:27:16;3.47;;;3.17;;
39982;SDS011;25670;44.782;10.356;2022-07-29T11:29:55;4.68;;;3.45;;
39982;SDS011;25670;44.782;10.356;2022-07-29T11:32:23;3.35;;;3.05;;
39982;SDS011;25670;44.782;10.356;2022-07-29T11:35:10;5.68;;;3.00;;
39982;SDS011;25670;44.782;10.356;2022-07-29T11:37:37;3.78;;;3.03;;
39982;SDS011;25670;44.782;10.356;2022-07-29T11:44:57;4.57;;;3.40;;
39982;SDS011;25670;44.782;10.356;2022-07-29T11:47:24;3.47;;;2.80;;
39982;SDS011;25670;44.782;10.356;2022-07-29T11:49:53;3.03;;;2.72;;
39982;SDS011;25670;44.782;10.356;2022-07-29T11:52:20;4.95;;;3.50;;
39982;SDS011;25670;44.782;10.356;2022-07-29T11:54:47;3.17;;;2.97;;
39982;SDS011;25670;44.782;10.356;2022-07-29T11:57:16;4.43;;;3.13;;
39982;SDS011;25670;44.782;10.356;2022-07-29T11:59:43;6.70;;;3.60;;
39982;SDS011;25670;44.782;10.356;2022-07-29T12:02:11;8.15;;;2.55;;
39982;SDS011;25670;44.782;10.356;2022-07-29T12:04:56;3.20;;;2.50;;
39982;SDS011;25670;44.782;10.356;2022-07-29T12:09:57;4.00;;;3.00;;
39982;SDS011;25670;44.782;10.356;2022-07-29T12:12:29;5.57;;;3.08;;
39982;SDS011;25670;44.782;10.356;2022-07-29T12:14:55;4.78;;;3.63;;
39982;SDS011;25670;44.782;10.356;2022-07-29T12:17:32;3.95;;;3.40;;
39982;SDS011;25670;44.782;10.356;2022-07-29T12:20:02;9.48;;;3.53;;
39982;SDS011;25670;44.782;10.356;2022-07-29T12:22:34;3.10;;;2.90;;
39982;SDS011;25670;44.782;10.356;2022-07-29T12:25:09;3.63;;;3.00;;
39982;SDS011;25670;44.782;10.356;2022-07-29T12:27:39;5.78;;;3.30;;
39982;SDS011;25670;44.782;10.356;2022-07-29T12:30:07;3.42;;;3.13;;
39982;SDS011;25670;44.782;10.356;2022-07-29T12:32:36;5.05;;;2.95;;
39982;SDS011;25670;44.782;10.356;2022-07-29T12:35:16;2.97;;;2.67;;
39982;SDS011;25670;44.782;10.356;2022-07-29T12:37:47;4.80;;;2.97;;
39982;SDS011;25670;44.782;10.356;2022-07-29T12:40:16;3.65;;;2.83;;
39982;SDS011;25670;44.782;10.356;2022-07-29T12:45:35;2.80;;;2.60;;
39982;SDS011;25670;44.782;10.356;2022-07-29T12:48:03;3.05;;;2.83;;
39982;SDS011;25670;44.782;10.356;2022-07-29T12:50:29;4.40;;;2.53;;
39982;SDS011;25670;44.782;10.356;2022-07-29T12:53:13;6.38;;;3.10;;
39982;SDS011;25670;44.782;10.356;2022-07-29T12:55:43;4.30;;;3.05;;
39982;SDS011;25670;44.782;10.356;2022-07-29T12:58:25;3.40;;;3.10;;
39982;SDS011;25670;44.782;10.356;2022-07-29T13:01:03;4.63;;;3.35;;
39982;SDS011;25670;44.782;10.356;2022-07-29T13:03:41;7.30;;;3.45;;
39982;SDS011;25670;44.782;10.356;2022-07-29T13:11:31;13.93;;;4.22;;
39982;SDS011;25670;44.782;10.356;2022-07-29T13:14:02;6.20;;;3.30;;
39982;SDS011;25670;44.782;10.356;2022-07-29T13:16:29;3.65;;;3.30;;
39982;SDS011;25670;44.782;10.356;2022-07-29T13:19:03;3.47;;;3.08;;
39982;SDS011;25670;44.782;10.356;2022-07-29T13:21:30;4.60;;;3.20;;
39982;SDS011;25670;44.782;10.356;2022-07-29T13:23:56;7.60;;;3.30;;
39982;SDS011;25670;44.782;10.356;2022-07-29T13:26:22;5.03;;;3.20;;
39982;SDS011;25670;44.782;10.356;2022-07-29T13:28:48;4.28;;;3.28;;
39982;SDS011;25670;44.782;10.356;2022-07-29T13:31:15;4.10;;;2.88;;
39982;SDS011;25670;44.782;10.356;2022-07-29T13:33:41;6.97;;;3.28;;
39982;SDS011;25670;44.782;10.356;2022-07-29T13:36:07;3.97;;;2.65;;
39982;SDS011;25670;44.782;10.356;2022-07-29T13:38:34;4.78;;;3.55;;
39982;SDS011;25670;44.782;10.356;2022-07-29T13:41:00;8.32;;;3.90;;
39982;SDS011;25670;44.782;10.356;2022-07-29T13:43:26;4.07;;;3.72;;
39982;SDS011;25670;44.782;10.356;2022-07-29T13:46:01;11.07;;;4.18;;
39982;SDS011;25670;44.782;10.356;2022-07-29T13:48:27;4.43;;;4.05;;
39982;SDS011;25670;44.782;10.356;2022-07-29T13:50:53;4.93;;;4.43;;
39982;SDS011;25670;44.782;10.356;2022-07-29T13:53:20;14.77;;;5.15;;
39982;SDS011;25670;44.782;10.356;2022-07-29T13:55:46;8.25;;;5.68;;
39982;SDS011;25670;44.782;10.356;2022-07-29T13:58:12;7.45;;;6.75;;
39982;SDS011;25670;44.782;10.356;2022-07-29T14:00:39;14.45;;;6.88;;
39982;SDS011;25670;44.782;10.356;2022-07-29T14:03:05;14.70;;;8.00;;
39982;SDS011;25670;44.782;10.356;2022-07-29T14:05:31;14.13;;;9.40;;
39982;SDS011;25670;44.782;10.356;2022-07-29T14:07:58;11.50;;;10.18;;
39982;SDS011;25670;44.782;10.356;2022-07-29T14:10:25;7.47;;;6.72;;
39982;SDS011;25670;44.782;10.356;2022-07-29T14:12:52;12.90;;;7.15;;
39982;SDS011;25670;44.782;10.356;2022-07-29T14:15:18;10.30;;;4.35;;
39982;SDS011;25670;44.782;10.356;2022-07-29T14:17:47;6.45;;;4.25;;
39982;SDS011;25670;44.782;10.356;2022-07-29T14:20:13;15.57;;;4.57;;
39982;SDS011;25670;44.782;10.356;2022-07-29T14:22:41;8.77;;;5.03;;
39982;SDS011;25670;44.782;10.356;2022-07-29T14:25:08;5.05;;;4.65;;
39982;SDS011;25670;44.782;10.356;2022-07-29T14:27:34;5.50;;;5.10;;
39982;SDS011;25670;44.782;10.356;2022-07-29T14:30:00;9.25;;;6.80;;
39982;SDS011;25670;44.782;10.356;2022-07-29T14:32:26;7.53;;;6.68;;
39982;SDS011;25670;44.782;10.356;2022-07-29T14:34:52;7.30;;;6.57;;
39982;SDS011;25670;44.782;10.356;2022-07-29T14:37:21;7.32;;;6.85;;
39982;SDS011;25670;44.782;10.356;2022-07-29T14:39:48;10.70;;;6.65;;
39982;SDS011;25670;44.782;10.356;2022-07-29T14:42:14;7.28;;;6.78;;
39982;SDS011;25670;44.782;10.356;2022-07-29T14:44:40;8.93;;;7.18;;
39982;SDS011;25670;44.782;10.356;2022-07-29T14:47:07;7.97;;;6.70;;
39982;SDS011;25670;44.782;10.356;2022-07-29T14:49:33;8.50;;;6.47;;
39982;SDS011;25670;44.782;10.356;2022-07-29T14:52:00;6.88;;;6.25;;
39982;SDS011;25670;44.782;10.356;2022-07-29T14:54:26;8.35;;;6.22;;
39982;SDS011;25670;44.782;10.356;2022-07-29T14:56:52;9.15;;;6.25;;
39982;SDS011;25670;44.782;10.356;2022-07-29T14:59:22;9.85;;;9.02;;
39982;SDS011;25670;44.782;10.356;2022-07-29T15:01:48;10.80;;;9.77;;
39982;SDS011;25670;44.782;10.356;2022-07-29T15:04:15;11.18;;;10.10;;
39982;SDS011;25670;44.782;10.356;2022-07-29T15:06:41;13.50;;;9.57;;
39982;SDS011;25670;44.782;10.356;2022-07-29T15:09:08;11.40;;;9.45;;
39982;SDS011;25670;44.782;10.356;2022-07-29T15:11:35;9.45;;;8.60;;
39982;SDS011;25670;44.782;10.356;2022-07-29T15:14:01;13.38;;;6.25;;
39982;SDS011;25670;44.782;10.356;2022-07-29T15:16:27;9.70;;;5.07;;
39982;SDS011;25670;44.782;10.356;2022-07-29T15:18:53;4.32;;;3.95;;
39982;SDS011;25670;44.782;10.356;2022-07-29T15:21:24;10.88;;;4.20;;
39982;SDS011;25670;44.782;10.356;2022-07-29T15:23:50;5.95;;;3.80;;
39982;SDS011;25670;44.782;10.356;2022-07-29T15:26:17;3.88;;;3.58;;
39982;SDS011;25670;44.782;10.356;2022-07-29T15:28:44;5.68;;;2.83;;